createdAt,value
2018-12-19T00:02:21.511Z,88.45
2018-12-19T00:04:50.092Z,87.96
2018-12-19T00:07:18.623Z,87.85
2018-12-19T00:09:47.135Z,88.21
2018-12-19T00:12:15.696Z,88.24
2018-12-19T00:14:44.238Z,89.35
2018-12-19T00:17:12.826Z,88.55
2018-12-19T00:19:41.349Z,88.73
2018-12-19T00:22:09.832Z,88.97
2018-12-19T00:24:38.395Z,89.21
2018-12-19T00:27:06.914Z,88.72
2018-12-19T00:29:35.449Z,88.65
2018-12-19T00:32:04.035Z,88.50
2018-12-19T00:34:32.589Z,88.32
2018-12-19T00:37:01.158Z,87.67
2018-12-19T00:39:29.689Z,88.31
2018-12-19T00:41:58.285Z,87.91
2018-12-19T00:44:26.834Z,87.86
2018-12-19T00:46:55.393Z,87.91
2018-12-19T00:49:23.953Z,88.53
2018-12-19T00:51:52.585Z,87.51
2018-12-19T00:54:21.423Z,88.50
2018-12-19T00:56:49.987Z,88.26
2018-12-19T00:59:18.489Z,88.46
2018-12-19T01:01:47.059Z,88.42
2018-12-19T01:04:15.623Z,89.01
2018-12-19T01:06:44.161Z,88.09
2018-12-19T01:09:15.940Z,88.43
2018-12-19T01:11:43.310Z,88.89
2018-12-19T01:14:11.862Z,87.74
2018-12-19T01:16:40.435Z,87.87
2018-12-19T01:19:08.985Z,87.10
2018-12-19T01:21:37.651Z,87.83
2018-12-19T01:24:06.185Z,87.41
2018-12-19T01:26:34.715Z,87.08
2018-12-19T01:29:03.364Z,87.34
2018-12-19T01:31:31.945Z,87.13
2018-12-19T01:34:00.482Z,87.42
2018-12-19T01:36:29.043Z,87.17
2018-12-19T01:38:57.606Z,87.89
2018-12-19T01:41:26.172Z,88.14
2018-12-19T01:43:54.754Z,88.10
2018-12-19T01:46:23.289Z,87.09
2018-12-19T01:48:51.810Z,87.49
2018-12-19T01:51:20.506Z,86.84
2018-12-19T01:53:49.412Z,86.70
2018-12-19T01:56:17.964Z,87.24
2018-12-19T01:58:46.529Z,87.55
2018-12-19T02:01:15.085Z,87.34
2018-12-19T02:03:43.616Z,87.30
2018-12-19T02:06:12.211Z,87.47
2018-12-19T02:08:40.783Z,88.44
2018-12-19T02:11:09.391Z,88.92
2018-12-19T02:13:39.900Z,88.25
2018-12-19T02:16:08.454Z,87.79
2018-12-19T02:18:37.003Z,88.21
2018-12-19T02:21:05.532Z,88.48
2018-12-19T02:23:34.227Z,88.75
2018-12-19T02:26:02.749Z,88.91
2018-12-19T02:28:31.314Z,88.10
2018-12-19T02:30:59.874Z,87.94
2018-12-19T02:33:28.449Z,87.71
2018-12-19T02:35:57.085Z,88.04
2018-12-19T02:38:25.585Z,87.65
2018-12-19T02:40:54.161Z,87.99
2018-12-19T02:43:22.721Z,88.02
2018-12-19T02:45:51.265Z,87.59
2018-12-19T02:48:19.774Z,87.54
2018-12-19T02:50:48.311Z,88.22
2018-12-19T02:53:16.846Z,88.50
2018-12-19T02:55:45.355Z,88.54
2018-12-19T02:58:13.870Z,88.05
2018-12-19T03:00:42.490Z,88.67
2018-12-19T03:03:11.034Z,88.78
2018-12-19T03:05:39.640Z,89.37
2018-12-19T03:08:08.213Z,88.78
2018-12-19T03:10:36.843Z,88.24
2018-12-19T03:13:05.412Z,89.04
2018-12-19T03:15:34.076Z,89.29
2018-12-19T03:18:02.599Z,89.06
2018-12-19T03:20:31.228Z,88.23
2018-12-19T03:22:59.778Z,88.87
2018-12-19T03:25:28.352Z,88.58
2018-12-19T03:27:56.948Z,89.39
2018-12-19T03:30:25.541Z,89.39
2018-12-19T03:32:54.110Z,89.88
2018-12-19T03:35:22.658Z,90.30
2018-12-19T03:37:51.173Z,89.32
2018-12-19T03:40:19.731Z,90.13
2018-12-19T03:42:48.275Z,89.57
2018-12-19T03:45:16.833Z,90.20
2018-12-19T03:47:45.402Z,90.30
2018-12-19T03:50:14.155Z,90.28
2018-12-19T03:52:42.668Z,90.45
2018-12-19T03:55:11.199Z,91.03
2018-12-19T03:57:39.808Z,91.15
2018-12-19T04:00:11.914Z,91.41
2018-12-19T04:02:40.463Z,91.33
2018-12-19T04:05:09.012Z,91.00
2018-12-19T04:07:37.539Z,90.72
2018-12-19T04:10:06.501Z,91.25
2018-12-19T04:12:35.067Z,90.94
2018-12-19T04:15:03.919Z,91.26
2018-12-19T04:17:32.520Z,91.62
2018-12-19T04:20:01.071Z,91.38
2018-12-19T04:22:29.807Z,91.80
2018-12-19T04:24:58.351Z,91.29
2018-12-19T04:27:26.967Z,90.57
2018-12-19T04:29:55.745Z,90.34
2018-12-19T04:32:24.455Z,90.06
2018-12-19T04:34:53.027Z,90.63
2018-12-19T04:37:21.547Z,91.48
2018-12-19T04:39:50.080Z,91.10
2018-12-19T04:42:18.620Z,90.97
2018-12-19T04:44:47.203Z,91.34
2018-12-19T04:47:15.730Z,91.69
2018-12-19T04:49:44.349Z,91.71
2018-12-19T04:52:12.970Z,91.13
2018-12-19T04:54:41.515Z,91.65
2018-12-19T04:57:10.046Z,91.17
2018-12-19T04:59:38.621Z,90.89
2018-12-19T05:02:07.190Z,91.82
2018-12-19T05:04:35.715Z,91.53
2018-12-19T05:07:04.246Z,92.11
2018-12-19T05:09:32.830Z,91.41
2018-12-19T05:12:01.395Z,92.24
2018-12-19T05:14:30.139Z,91.54
2018-12-19T05:16:58.685Z,90.90
2018-12-19T05:19:27.243Z,91.71
2018-12-19T05:21:55.817Z,91.63
2018-12-19T05:24:24.318Z,90.56
2018-12-19T05:26:52.858Z,90.89
2018-12-19T05:29:21.458Z,90.39
2018-12-19T05:31:50.044Z,90.87
2018-12-19T05:34:18.629Z,90.42
2018-12-19T05:36:47.176Z,89.85
2018-12-19T05:39:15.741Z,90.03
2018-12-19T05:41:44.329Z,90.20
2018-12-19T05:44:12.982Z,89.77
2018-12-19T05:46:41.657Z,90.54
2018-12-19T05:49:10.195Z,89.65
2018-12-19T05:51:38.895Z,90.36
2018-12-19T05:54:07.525Z,90.40
2018-12-19T05:56:36.066Z,90.13
2018-12-19T05:59:04.640Z,90.07
2018-12-19T06:01:33.210Z,89.59
2018-12-19T06:04:01.776Z,90.41
2018-12-19T06:06:30.321Z,89.71
2018-12-19T06:08:58.900Z,89.64
2018-12-19T06:11:27.563Z,88.83
2018-12-19T06:13:56.102Z,89.29
2018-12-19T06:16:24.844Z,89.31
2018-12-19T06:18:53.437Z,88.79
2018-12-19T06:21:22.045Z,88.28
2018-12-19T06:23:50.592Z,88.82
2018-12-19T06:26:19.143Z,88.80
2018-12-19T06:28:47.698Z,87.95
2018-12-19T06:31:16.325Z,87.38
2018-12-19T06:33:45.415Z,87.51
2018-12-19T06:36:14.015Z,86.71
2018-12-19T06:38:42.559Z,86.99
2018-12-19T06:41:11.065Z,87.21
2018-12-19T06:43:39.848Z,86.16
2018-12-19T06:46:08.690Z,84.31
2018-12-19T06:48:37.233Z,83.71
2018-12-19T06:51:05.750Z,81.48
2018-12-19T06:53:34.313Z,80.71
2018-12-19T06:56:02.904Z,80.25
2018-12-19T06:58:31.637Z,79.83
2018-12-19T07:01:00.188Z,78.08
2018-12-19T07:03:28.726Z,77.15
2018-12-19T07:05:57.416Z,76.43
2018-12-19T07:08:25.980Z,75.85
2018-12-19T07:10:54.536Z,75.68
2018-12-19T07:13:23.249Z,75.55
2018-12-19T07:15:51.894Z,75.52
2018-12-19T07:18:20.496Z,74.74
2018-12-19T07:20:49.216Z,74.28
2018-12-19T07:23:17.760Z,73.84
2018-12-19T07:25:46.342Z,73.27
2018-12-19T07:28:15.006Z,73.22
2018-12-19T07:30:43.590Z,72.90
2018-12-19T07:33:12.109Z,72.89
2018-12-19T07:35:40.726Z,73.45
2018-12-19T07:38:09.293Z,73.59
2018-12-19T07:40:37.866Z,73.15
2018-12-19T07:43:06.404Z,72.72
2018-12-19T07:45:35.004Z,72.48
2018-12-19T07:48:03.743Z,71.88
2018-12-19T07:50:32.339Z,71.73
2018-12-19T07:53:01.177Z,71.46
2018-12-19T07:55:33.326Z,70.50
2018-12-19T07:58:01.911Z,70.29
2018-12-19T08:00:30.501Z,70.20
2018-12-19T08:02:59.055Z,69.14
2018-12-19T08:05:27.652Z,70.20
2018-12-19T08:07:56.254Z,71.37
2018-12-19T08:10:24.885Z,71.91
2018-12-19T08:12:54.145Z,71.57
2018-12-19T08:15:22.695Z,70.27
2018-12-19T08:17:51.235Z,70.99
2018-12-19T08:20:19.793Z,72.14
2018-12-19T08:22:48.407Z,72.47
2018-12-19T08:25:17.062Z,72.47
2018-12-19T08:27:45.602Z,72.78
2018-12-19T08:30:14.292Z,72.27
2018-12-19T08:32:42.863Z,73.79
2018-12-19T08:35:11.405Z,73.98
2018-12-19T08:37:40.003Z,73.58
2018-12-19T08:40:08.668Z,73.74
2018-12-19T08:42:37.258Z,73.51
2018-12-19T08:45:06.210Z,73.23
2018-12-19T08:47:34.826Z,72.65
2018-12-19T08:50:03.527Z,73.99
2018-12-19T08:52:32.104Z,74.78
2018-12-19T08:55:00.665Z,75.38
2018-12-19T08:57:29.212Z,75.19
2018-12-19T08:59:57.777Z,75.26
2018-12-19T09:02:26.398Z,76.56
2018-12-19T09:04:54.964Z,76.46
2018-12-19T09:07:23.525Z,75.31
2018-12-19T09:09:52.065Z,76.22
2018-12-19T09:12:20.786Z,76.47
2018-12-19T09:14:49.314Z,76.47
2018-12-19T09:17:18.239Z,76.29
2018-12-19T09:19:47.312Z,77.14
2018-12-19T09:22:16.184Z,76.23
2018-12-19T09:24:44.681Z,74.97
2018-12-19T09:27:13.247Z,73.67
2018-12-19T09:29:41.877Z,72.12
2018-12-19T09:32:10.431Z,71.52
2018-12-19T09:34:39.021Z,70.73
2018-12-19T09:37:07.631Z,70.87
2018-12-19T09:39:36.214Z,71.65
2018-12-19T09:42:04.770Z,72.13
2018-12-19T09:44:33.340Z,73.03
2018-12-19T09:47:01.958Z,73.31
2018-12-19T09:49:30.551Z,74.12
2018-12-19T09:51:59.282Z,74.34
2018-12-19T09:54:27.842Z,73.91
2018-12-19T09:56:56.426Z,72.44
2018-12-19T09:59:24.937Z,72.24
2018-12-19T10:01:53.437Z,71.43
2018-12-19T10:04:22.003Z,71.54
2018-12-19T10:06:50.583Z,70.43
2018-12-19T10:09:19.278Z,69.86
2018-12-19T10:11:47.833Z,69.72
2018-12-19T10:14:16.354Z,68.35
2018-12-19T10:16:44.923Z,67.54
2018-12-19T10:19:13.625Z,67.70
2018-12-19T10:21:42.431Z,67.26
2018-12-19T10:24:10.936Z,68.40
2018-12-19T10:26:39.665Z,68.35
2018-12-19T10:29:08.385Z,68.38
2018-12-19T10:31:36.993Z,67.53
2018-12-19T10:34:05.616Z,67.78
2018-12-19T10:36:38.891Z,67.17
2018-12-19T10:39:12.667Z,67.50
2018-12-19T10:41:41.301Z,66.51
2018-12-19T10:44:10.192Z,66.55
2018-12-19T10:46:38.873Z,65.74
2018-12-19T10:49:07.415Z,65.87
2018-12-19T10:51:36.063Z,66.66
2018-12-19T10:54:04.665Z,65.74
2018-12-19T10:56:33.200Z,65.09
2018-12-19T10:59:01.715Z,65.26
2018-12-19T11:01:30.257Z,66.65
2018-12-19T11:03:58.854Z,66.75
2018-12-19T11:06:27.443Z,66.42
2018-12-19T11:08:56.009Z,67.18
2018-12-19T11:11:24.613Z,66.56
2018-12-19T11:13:53.177Z,66.41
2018-12-19T11:16:21.767Z,67.38
2018-12-19T11:18:50.309Z,66.41
2018-12-19T11:21:18.856Z,66.40
2018-12-19T11:23:47.395Z,65.91
2018-12-19T11:26:15.940Z,65.24
2018-12-19T11:28:44.497Z,65.53
2018-12-19T11:31:13.051Z,66.21
2018-12-19T11:33:41.584Z,65.15
2018-12-19T11:36:10.249Z,64.66
2018-12-19T11:38:38.891Z,64.62
2018-12-19T11:41:07.468Z,65.16
2018-12-19T11:43:36.015Z,65.40
2018-12-19T11:46:04.697Z,65.76
2018-12-19T11:48:33.260Z,66.48
2018-12-19T11:51:01.933Z,64.57
2018-12-19T11:53:30.500Z,66.61
2018-12-19T11:55:59.036Z,64.59
2018-12-19T11:58:27.633Z,66.99
2018-12-19T12:00:56.727Z,66.00
2018-12-19T12:03:25.924Z,66.69
2018-12-19T12:05:54.463Z,67.07
2018-12-19T12:08:23.020Z,67.55
2018-12-19T12:10:51.592Z,68.19
2018-12-19T12:13:20.134Z,69.00
2018-12-19T12:15:48.650Z,68.01
2018-12-19T12:18:17.159Z,68.09
2018-12-19T12:20:45.742Z,67.80
2018-12-19T12:23:14.337Z,68.26
2018-12-19T12:25:42.916Z,69.00
2018-12-19T12:28:11.478Z,68.97
2018-12-19T12:30:40.014Z,68.30
2018-12-19T12:33:08.531Z,67.99
2018-12-19T12:35:37.425Z,67.64
2018-12-19T12:38:06.013Z,66.74
2018-12-19T12:40:34.610Z,67.02
2018-12-19T12:43:03.189Z,67.04
2018-12-19T12:45:31.779Z,66.71
2018-12-19T12:48:00.343Z,66.47
2018-12-19T12:50:28.889Z,66.41
2018-12-19T12:52:57.473Z,67.00
2018-12-19T12:55:26.134Z,67.31
2018-12-19T12:57:54.724Z,66.84
2018-12-19T13:00:23.327Z,66.60
2018-12-19T13:02:51.948Z,67.75
2018-12-19T13:05:22.505Z,67.55
2018-12-19T13:07:51.003Z,66.94
2018-12-19T13:10:19.561Z,67.13
2018-12-19T13:12:48.144Z,66.71
2018-12-19T13:15:20.827Z,67.09
2018-12-19T13:17:49.519Z,67.52
2018-12-19T13:20:18.115Z,67.98
2018-12-19T13:22:46.809Z,68.09
2018-12-19T13:25:15.364Z,68.69
2018-12-19T13:27:43.953Z,68.16
2018-12-19T13:30:12.608Z,69.07
2018-12-19T13:32:41.167Z,70.04
2018-12-19T13:35:09.736Z,70.49
2018-12-19T13:37:38.255Z,71.05
2018-12-19T13:40:07.249Z,71.16
2018-12-19T13:42:35.796Z,71.62
2018-12-19T13:45:04.905Z,71.36
2018-12-19T13:47:33.535Z,71.92
2018-12-19T13:50:02.117Z,71.37
2018-12-19T13:52:30.649Z,72.43
2018-12-19T13:54:59.198Z,72.25
2018-12-19T13:57:28.388Z,73.09
2018-12-19T13:59:57.172Z,73.59
2018-12-19T14:02:25.790Z,74.60
2018-12-19T14:04:54.340Z,74.61
2018-12-19T14:07:22.911Z,74.73
2018-12-19T14:09:52.927Z,74.24
2018-12-19T14:12:21.752Z,75.35
2018-12-19T14:14:51.261Z,75.38
2018-12-19T14:17:19.777Z,76.47
2018-12-19T14:19:48.358Z,76.41
2018-12-19T14:22:17.052Z,77.27
2018-12-19T14:24:45.579Z,77.75
2018-12-19T14:27:14.113Z,77.64
2018-12-19T14:29:42.682Z,78.41
2018-12-19T14:32:11.325Z,78.57
2018-12-19T14:34:39.851Z,78.13
2018-12-19T14:37:08.464Z,78.82
2018-12-19T14:39:36.998Z,79.17
2018-12-19T14:42:05.587Z,79.53
2018-12-19T14:44:34.235Z,80.36
2018-12-19T14:47:03.134Z,80.31
2018-12-19T14:49:31.732Z,81.00
2018-12-19T14:52:00.307Z,81.15
2018-12-19T14:54:28.901Z,81.32
2018-12-19T14:56:57.518Z,81.39
2018-12-19T14:59:26.128Z,81.50
2018-12-19T15:01:54.638Z,80.89
2018-12-19T15:04:23.174Z,82.02
2018-12-19T15:06:51.947Z,81.94
2018-12-19T15:09:20.556Z,81.60
2018-12-19T15:11:49.232Z,82.37
2018-12-19T15:14:17.781Z,82.14
2018-12-19T15:16:46.375Z,82.19
2018-12-19T15:19:15.474Z,82.59
2018-12-19T15:21:44.251Z,83.01
2018-12-19T15:24:12.865Z,82.85
2018-12-19T15:26:41.427Z,83.05
2018-12-19T15:29:10.145Z,83.37
2018-12-19T15:31:38.782Z,83.57
2018-12-19T15:34:07.302Z,83.59
2018-12-19T15:36:36.140Z,84.08
2018-12-19T15:39:07.654Z,84.22
2018-12-19T15:41:36.605Z,83.76
2018-12-19T15:44:05.161Z,84.37
2018-12-19T15:46:33.912Z,84.25
2018-12-19T15:49:02.476Z,83.94
2018-12-19T15:51:30.999Z,84.61
2018-12-19T15:53:59.508Z,84.87
2018-12-19T15:56:28.200Z,84.96
2018-12-19T15:58:56.843Z,84.93
2018-12-19T16:01:25.676Z,85.11
2018-12-19T16:03:54.346Z,85.84
2018-12-19T16:06:23.051Z,85.21
2018-12-19T16:08:51.685Z,85.90
2018-12-19T16:11:20.251Z,86.67
2018-12-19T16:13:48.990Z,86.81
2018-12-19T16:16:17.897Z,86.75
2018-12-19T16:18:46.558Z,87.27
2018-12-19T16:21:15.271Z,86.63
2018-12-19T16:23:43.924Z,87.63
2018-12-19T16:26:12.630Z,87.60
2018-12-19T16:28:41.392Z,87.54
2018-12-19T16:31:10.147Z,88.02
2018-12-19T16:33:39.095Z,87.68
2018-12-19T16:36:08.002Z,88.40
2018-12-19T16:38:37.372Z,88.83
2018-12-19T16:41:06.499Z,89.54
2018-12-19T16:43:35.085Z,89.30
2018-12-19T16:46:03.730Z,89.81
2018-12-19T16:48:32.379Z,89.69
2018-12-19T16:51:01.627Z,90.09
2018-12-19T16:53:30.323Z,90.62
2018-12-19T16:55:58.878Z,90.32
2018-12-19T16:58:27.423Z,90.39
2018-12-19T17:00:55.977Z,90.33
2018-12-19T17:03:25.099Z,90.20
2018-12-19T17:05:53.820Z,90.64
2018-12-19T17:08:22.835Z,90.72
2018-12-19T17:10:51.693Z,90.81
2018-12-19T17:13:20.406Z,91.36
2018-12-19T17:15:49.410Z,90.99
2018-12-19T17:18:18.371Z,91.42
2018-12-19T17:20:47.289Z,91.49
2018-12-19T17:23:16.078Z,92.34
2018-12-19T17:25:44.713Z,92.15
2018-12-19T17:28:13.352Z,91.61
2018-12-19T17:30:42.314Z,92.48
2018-12-19T17:33:12.025Z,92.29
2018-12-19T17:35:40.599Z,92.09
2018-12-19T17:38:09.171Z,91.88
2018-12-19T17:40:37.932Z,92.47
2018-12-19T17:43:06.604Z,92.36
2018-12-19T17:45:35.418Z,93.23
2018-12-19T17:48:04.462Z,92.36
2018-12-19T17:50:33.198Z,92.81
2018-12-19T17:53:01.741Z,92.90
2018-12-19T17:55:31.017Z,93.11
2018-12-19T17:57:59.897Z,93.17
2018-12-19T18:00:28.609Z,93.27
2018-12-19T18:02:57.490Z,92.78
2018-12-19T18:05:26.355Z,93.87
2018-12-19T18:07:55.620Z,93.78
2018-12-19T18:10:24.543Z,93.81
2018-12-19T18:12:53.322Z,93.34
2018-12-19T18:15:21.999Z,93.41
2018-12-19T18:17:50.763Z,93.99
2018-12-19T18:20:19.606Z,94.07
2018-12-19T18:22:48.253Z,93.16
2018-12-19T18:25:17.077Z,93.72
2018-12-19T18:27:45.715Z,93.06
2018-12-19T18:30:14.603Z,92.68
2018-12-19T18:32:43.536Z,92.84
2018-12-19T18:35:12.482Z,92.36
2018-12-19T18:37:41.415Z,92.03
2018-12-19T18:40:10.346Z,91.58
2018-12-19T18:42:39.143Z,90.88
2018-12-19T18:45:11.831Z,90.92
2018-12-19T18:47:40.062Z,90.98
2018-12-19T18:50:09.067Z,91.03
2018-12-19T18:52:37.713Z,91.00
2018-12-19T18:55:07.330Z,91.18
2018-12-19T18:57:36.309Z,90.72
2018-12-19T19:00:16.232Z,91.51
2018-12-19T19:02:45.123Z,91.04
2018-12-19T19:05:14.123Z,91.80
2018-12-19T19:07:42.830Z,91.66
2018-12-19T19:10:11.451Z,91.68
2018-12-19T19:12:40.204Z,91.62
2018-12-19T19:15:08.803Z,91.76
2018-12-19T19:17:37.673Z,91.27
2018-12-19T19:20:06.647Z,91.90
2018-12-19T19:22:35.422Z,92.13
2018-12-19T19:25:05.121Z,93.57
2018-12-19T19:27:34.099Z,93.97
2018-12-19T19:30:10.943Z,93.98
2018-12-19T19:32:39.652Z,94.56
2018-12-19T19:35:08.636Z,94.53
2018-12-19T19:37:37.819Z,94.52
2018-12-19T19:40:08.425Z,94.84
2018-12-19T19:42:37.036Z,94.95
2018-12-19T19:45:06.679Z,95.02
2018-12-19T19:47:35.427Z,94.26
2018-12-19T19:50:04.677Z,94.10
2018-12-19T19:52:33.362Z,94.78
2018-12-19T19:55:02.064Z,94.78
2018-12-19T19:57:30.863Z,93.92
2018-12-19T19:59:59.746Z,94.49
2018-12-19T20:02:29.085Z,93.86
2018-12-19T20:04:58.087Z,94.13
2018-12-19T20:07:26.913Z,93.00
2018-12-19T20:09:55.781Z,93.38
2018-12-19T20:12:24.544Z,93.17
2018-12-19T20:14:53.223Z,92.94
2018-12-19T20:17:26.825Z,92.99
2018-12-19T20:19:55.482Z,92.68
2018-12-19T20:22:24.093Z,92.84
2018-12-19T20:24:52.640Z,93.54
2018-12-19T20:27:21.198Z,92.97
2018-12-19T20:29:49.856Z,93.29
2018-12-19T20:32:18.548Z,93.68
2018-12-19T20:34:47.129Z,93.90
2018-12-19T20:37:15.784Z,93.84
2018-12-19T20:39:45.487Z,93.28
2018-12-19T20:42:14.979Z,93.66
2018-12-19T20:44:43.525Z,94.50
2018-12-19T20:47:12.076Z,94.65
2018-12-19T20:49:40.605Z,94.60
2018-12-19T20:52:09.263Z,94.53
2018-12-19T20:54:37.866Z,94.85
2018-12-19T20:57:06.492Z,95.01
2018-12-19T20:59:35.092Z,95.09
2018-12-19T21:02:03.857Z,94.82
2018-12-19T21:04:33.051Z,95.06
2018-12-19T21:07:01.633Z,94.78
2018-12-19T21:09:30.245Z,94.57
2018-12-19T21:11:59.280Z,95.75
2018-12-19T21:14:27.920Z,95.06
2018-12-19T21:17:01.847Z,94.62
2018-12-19T21:19:30.427Z,94.61
2018-12-19T21:21:58.963Z,94.79
2018-12-19T21:24:27.487Z,94.30
2018-12-19T21:26:56.040Z,94.71
2018-12-19T21:29:24.568Z,94.42
2018-12-19T21:31:53.171Z,94.29
2018-12-19T21:34:21.784Z,94.23
2018-12-19T21:36:50.383Z,94.62
2018-12-19T21:39:19.015Z,94.58
2018-12-19T21:41:47.536Z,94.42
2018-12-19T21:44:16.819Z,95.74
2018-12-19T21:46:45.530Z,95.75
2018-12-19T21:49:14.277Z,95.39
2018-12-19T21:51:42.880Z,96.42
2018-12-19T21:54:11.448Z,96.79
2018-12-19T21:56:39.971Z,95.94
2018-12-19T21:59:08.520Z,96.85
2018-12-19T22:01:37.279Z,96.17
2018-12-19T22:04:05.903Z,96.64
2018-12-19T22:06:34.606Z,96.80
2018-12-19T22:09:04.194Z,96.49
2018-12-19T22:11:33.020Z,96.44
2018-12-19T22:14:01.589Z,97.72
2018-12-19T22:16:35.959Z,97.42
2018-12-19T22:19:05.105Z,97.48
2018-12-19T22:21:33.794Z,97.77
2018-12-19T22:24:02.340Z,97.88
2018-12-19T22:26:31.068Z,97.74
2018-12-19T22:28:59.886Z,97.61
2018-12-19T22:31:28.587Z,97.20
2018-12-19T22:33:57.093Z,97.21
2018-12-19T22:36:25.679Z,97.57
2018-12-19T22:38:54.230Z,97.09
2018-12-19T22:41:22.874Z,96.49
2018-12-19T22:43:51.514Z,97.42
2018-12-19T22:46:20.048Z,97.19
2018-12-19T22:48:48.729Z,96.95
2018-12-19T22:51:17.500Z,97.09
2018-12-19T22:53:46.046Z,97.03
2018-12-19T22:56:14.536Z,97.32
2018-12-19T22:58:43.076Z,97.61
2018-12-19T23:01:17.084Z,97.24
2018-12-19T23:03:50.848Z,96.63
2018-12-19T23:06:20.524Z,97.19
2018-12-19T23:08:49.568Z,96.87
2018-12-19T23:11:18.373Z,96.32
2018-12-19T23:13:47.201Z,97.62
2018-12-19T23:16:15.776Z,97.45
2018-12-19T23:18:44.510Z,97.32
2018-12-19T23:21:13.114Z,97.38
2018-12-19T23:23:41.894Z,97.83
2018-12-19T23:26:10.556Z,97.58
2018-12-19T23:28:39.324Z,97.33
2018-12-19T23:31:08.056Z,97.02
2018-12-19T23:33:36.911Z,96.69
2018-12-19T23:36:05.783Z,96.69
2018-12-19T23:38:34.613Z,96.18
2018-12-19T23:41:03.183Z,96.42
2018-12-19T23:43:31.892Z,96.46
2018-12-19T23:46:00.487Z,96.68
2018-12-19T23:48:29.307Z,96.32
2018-12-19T23:50:58.013Z,96.15
2018-12-19T23:53:26.989Z,96.31
2018-12-19T23:55:55.654Z,96.13
2018-12-19T23:58:24.433Z,96.12
